sensor_id;sensor_type;location;lat;lon;timestamp;pressure;altitude;pressure_sealevel;temperature;humidity
37634;BME280;32048;49.902;22.508;2023-05-22T00:01:51;99037.00;;;7.12;100.00
37634;BME280;32048;49.902;22.508;2023-05-22T00:04:21;99035.47;;;7.04;100.00
37634;BME280;32048;49.902;22.508;2023-05-22T00:06:48;99038.19;;;7.01;100.00
37634;BME280;32048;49.902;22.508;2023-05-22T00:09:16;99032.25;;;6.96;100.00
37634;BME280;32048;49.902;22.508;2023-05-22T00:11:42;99035.00;;;6.92;100.00
37634;BME280;32048;49.902;22.508;2023-05-22T00:14:09;99030.81;;;6.86;100.00
37634;BME280;32048;49.902;22.508;2023-05-22T00:16:39;99041.47;;;6.81;100.00
37634;BME280;32048;49.902;22.508;2023-05-22T00:19:07;99044.19;;;6.78;100.00
37634;BME280;32048;49.902;22.508;2023-05-22T00:21:43;99035.53;;;6.75;100.00
37634;BME280;32048;49.902;22.508;2023-05-22T00:24:10;99041.75;;;6.72;100.00
37634;BME280;32048;49.902;22.508;2023-05-22T00:26:37;99032.34;;;6.66;100.00
37634;BME280;32048;49.902;22.508;2023-05-22T00:29:04;99028.06;;;6.62;100.00
37634;BME280;32048;49.902;22.508;2023-05-22T00:31:33;99032.56;;;6.59;100.00
37634;BME280;32048;49.902;22.508;2023-05-22T00:34:01;99037.91;;;6.56;100.00
37634;BME280;32048;49.902;22.508;2023-05-22T00:36:28;99035.38;;;6.53;100.00
37634;BME280;32048;49.902;22.508;2023-05-22T00:38:55;99031.06;;;6.50;100.00
37634;BME280;32048;49.902;22.508;2023-05-22T00:41:21;99030.31;;;6.47;100.00
37634;BME280;32048;49.902;22.508;2023-05-22T00:43:49;99027.00;;;6.41;100.00
37634;BME280;32048;49.902;22.508;2023-05-22T00:46:18;99026.25;;;6.36;100.00
37634;BME280;32048;49.902;22.508;2023-05-22T00:48:48;99026.34;;;6.33;100.00
37634;BME280;32048;49.902;22.508;2023-05-22T00:51:15;99029.94;;;6.31;100.00
37634;BME280;32048;49.902;22.508;2023-05-22T00:53:42;99016.97;;;6.26;100.00
37634;BME280;32048;49.902;22.508;2023-05-22T00:56:10;99027.50;;;6.24;100.00
37634;BME280;32048;49.902;22.508;2023-05-22T00:58:38;99024.09;;;6.21;100.00
37634;BME280;32048;49.902;22.508;2023-05-22T01:01:04;99025.00;;;6.20;100.00
37634;BME280;32048;49.902;22.508;2023-05-22T01:03:34;99019.88;;;6.17;100.00
37634;BME280;32048;49.902;22.508;2023-05-22T01:06:01;99025.16;;;6.15;100.00
37634;BME280;32048;49.902;22.508;2023-05-22T01:08:29;99032.22;;;6.12;100.00
37634;BME280;32048;49.902;22.508;2023-05-22T01:11:00;99032.38;;;6.07;100.00
37634;BME280;32048;49.902;22.508;2023-05-22T01:13:33;99025.47;;;6.04;100.00
37634;BME280;32048;49.902;22.508;2023-05-22T01:16:16;99025.56;;;6.01;100.00
37634;BME280;32048;49.902;22.508;2023-05-22T01:32:05;99009.47;;;5.82;100.00
37634;BME280;32048;49.902;22.508;2023-05-22T01:34:34;99018.38;;;5.77;100.00
37634;BME280;32048;49.902;22.508;2023-05-22T01:37:02;99008.00;;;5.72;100.00
37634;BME280;32048;49.902;22.508;2023-05-22T01:39:30;99010.69;;;5.69;100.00
37634;BME280;32048;49.902;22.508;2023-05-22T01:41:57;99004.66;;;5.67;100.00
37634;BME280;32048;49.902;22.508;2023-05-22T01:44:24;99008.22;;;5.65;100.00
37634;BME280;32048;49.902;22.508;2023-05-22T01:46:51;99008.28;;;5.63;100.00
37634;BME280;32048;49.902;22.508;2023-05-22T01:49:18;99018.81;;;5.60;100.00
37634;BME280;32048;49.902;22.508;2023-05-22T01:51:52;99019.81;;;5.56;100.00
37634;BME280;32048;49.902;22.508;2023-05-22T01:57:03;99020.94;;;5.47;100.00
37634;BME280;32048;49.902;22.508;2023-05-22T01:59:42;99021.91;;;5.43;100.00
37634;BME280;32048;49.902;22.508;2023-05-22T02:02:12;99022.03;;;5.38;100.00
37634;BME280;32048;49.902;22.508;2023-05-22T02:04:41;99020.41;;;5.34;100.00
37634;BME280;32048;49.902;22.508;2023-05-22T02:07:09;99023.97;;;5.32;100.00
37634;BME280;32048;49.902;22.508;2023-05-22T02:09:38;99017.09;;;5.28;100.00
37634;BME280;32048;49.902;22.508;2023-05-22T02:12:06;99015.41;;;5.25;100.00
37634;BME280;32048;49.902;22.508;2023-05-22T02:14:33;99023.31;;;5.22;100.00
37634;BME280;32048;49.902;22.508;2023-05-22T02:17:00;99013.84;;;5.18;100.00
37634;BME280;32048;49.902;22.508;2023-05-22T02:19:27;99017.47;;;5.12;100.00
37634;BME280;32048;49.902;22.508;2023-05-22T02:21:54;99012.38;;;5.08;100.00
37634;BME280;32048;49.902;22.508;2023-05-22T02:24:22;99007.25;;;5.03;100.00
37634;BME280;32048;49.902;22.508;2023-05-22T02:26:49;99009.03;;;5.01;100.00
37634;BME280;32048;49.902;22.508;2023-05-22T02:29:16;99016.06;;;4.99;100.00
37634;BME280;32048;49.902;22.508;2023-05-22T02:31:43;99010.00;;;4.97;100.00
37634;BME280;32048;49.902;22.508;2023-05-22T02:34:10;99006.56;;;4.95;100.00
37634;BME280;32048;49.902;22.508;2023-05-22T02:36:37;98999.66;;;4.92;100.00
37634;BME280;32048;49.902;22.508;2023-05-22T02:39:04;99000.56;;;4.91;100.00
37634;BME280;32048;49.902;22.508;2023-05-22T02:41:31;98999.75;;;4.89;100.00
37634;BME280;32048;49.902;22.508;2023-05-22T02:43:58;99001.50;;;4.89;100.00
37634;BME280;32048;49.902;22.508;2023-05-22T02:46:25;98999.69;;;4.91;100.00
37634;BME280;32048;49.902;22.508;2023-05-22T02:48:52;99002.19;;;4.95;100.00
37634;BME280;32048;49.902;22.508;2023-05-22T02:51:18;99005.56;;;5.00;100.00
37634;BME280;32048;49.902;22.508;2023-05-22T02:53:46;99007.22;;;5.05;100.00
37634;BME280;32048;49.902;22.508;2023-05-22T02:56:12;99003.66;;;5.07;100.00
37634;BME280;32048;49.902;22.508;2023-05-22T02:58:40;99008.84;;;5.09;100.00
37634;BME280;32048;49.902;22.508;2023-05-22T03:01:07;99006.16;;;5.12;100.00
37634;BME280;32048;49.902;22.508;2023-05-22T03:03:35;99003.47;;;5.13;100.00
37634;BME280;32048;49.902;22.508;2023-05-22T03:06:02;99000.81;;;5.15;100.00
37634;BME280;32048;49.902;22.508;2023-05-22T03:08:30;99001.66;;;5.17;100.00
37634;BME280;32048;49.902;22.508;2023-05-22T03:10:57;98998.94;;;5.20;100.00
37634;BME280;32048;49.902;22.508;2023-05-22T03:13:25;99003.16;;;5.26;100.00
37634;BME280;32048;49.902;22.508;2023-05-22T03:15:52;99010.81;;;5.33;100.00
37634;BME280;32048;49.902;22.508;2023-05-22T03:18:19;99009.81;;;5.39;100.00
37634;BME280;32048;49.902;22.508;2023-05-22T03:20:47;99013.13;;;5.46;100.00
37634;BME280;32048;49.902;22.508;2023-05-22T03:23:14;99008.63;;;5.49;100.00
37634;BME280;32048;49.902;22.508;2023-05-22T03:25:41;99012.00;;;5.54;100.00
37634;BME280;32048;49.902;22.508;2023-05-22T03:28:08;99015.25;;;5.62;100.00
37634;BME280;32048;49.902;22.508;2023-05-22T03:30:35;99017.81;;;5.66;100.00
37634;BME280;32048;49.902;22.508;2023-05-22T03:33:02;99012.44;;;5.70;100.00
37634;BME280;32048;49.902;22.508;2023-05-22T03:35:29;99013.16;;;5.75;100.00
37634;BME280;32048;49.902;22.508;2023-05-22T03:37:56;99012.97;;;5.83;100.00
37634;BME280;32048;49.902;22.508;2023-05-22T03:40:23;99012.63;;;5.95;100.00
37634;BME280;32048;49.902;22.508;2023-05-22T03:42:50;99010.41;;;6.11;100.00
37634;BME280;32048;49.902;22.508;2023-05-22T03:45:17;99002.91;;;6.29;100.00
37634;BME280;32048;49.902;22.508;2023-05-22T03:47:44;99002.44;;;6.44;100.00
37634;BME280;32048;49.902;22.508;2023-05-22T03:50:11;99010.63;;;6.61;100.00
37634;BME280;32048;49.902;22.508;2023-05-22T03:52:38;99010.06;;;6.78;100.00
37634;BME280;32048;49.902;22.508;2023-05-22T03:55:06;99016.53;;;6.95;100.00
37634;BME280;32048;49.902;22.508;2023-05-22T03:57:33;99014.16;;;7.14;100.00
37634;BME280;32048;49.902;22.508;2023-05-22T04:00:00;99006.50;;;7.33;100.00
37634;BME280;32048;49.902;22.508;2023-05-22T04:02:35;99005.78;;;7.53;100.00
37634;BME280;32048;49.902;22.508;2023-05-22T04:05:05;98998.97;;;7.72;100.00
37634;BME280;32048;49.902;22.508;2023-05-22T04:07:32;99006.13;;;7.92;100.00
37634;BME280;32048;49.902;22.508;2023-05-22T04:09:59;99001.88;;;8.11;100.00
37634;BME280;32048;49.902;22.508;2023-05-22T04:12:26;99005.47;;;8.32;100.00
37634;BME280;32048;49.902;22.508;2023-05-22T04:14:53;99002.00;;;8.54;100.00
37634;BME280;32048;49.902;22.508;2023-05-22T04:17:20;99009.06;;;8.76;100.00
37634;BME280;32048;49.902;22.508;2023-05-22T04:19:47;99004.69;;;8.97;100.00
37634;BME280;32048;49.902;22.508;2023-05-22T04:22:14;99002.81;;;9.21;100.00
37634;BME280;32048;49.902;22.508;2023-05-22T04:24:41;99010.44;;;9.47;100.00
37634;BME280;32048;49.902;22.508;2023-05-22T04:27:08;99005.75;;;9.74;100.00
37634;BME280;32048;49.902;22.508;2023-05-22T04:29:35;98993.81;;;10.05;100.00
37634;BME280;32048;49.902;22.508;2023-05-22T04:32:03;99001.81;;;10.42;100.00
37634;BME280;32048;49.902;22.508;2023-05-22T04:34:31;99003.31;;;10.84;100.00
37634;BME280;32048;49.902;22.508;2023-05-22T04:36:59;99003.03;;;11.24;100.00
37634;BME280;32048;49.902;22.508;2023-05-22T04:39:26;99011.81;;;11.60;100.00
37634;BME280;32048;49.902;22.508;2023-05-22T04:41:53;99009.22;;;11.93;100.00
37634;BME280;32048;49.902;22.508;2023-05-22T04:44:20;98998.66;;;12.25;100.00
37634;BME280;32048;49.902;22.508;2023-05-22T04:46:49;99003.88;;;12.58;100.00
37634;BME280;32048;49.902;22.508;2023-05-22T04:49:15;99008.03;;;12.94;97.07
37634;BME280;32048;49.902;22.508;2023-05-22T04:51:43;98997.94;;;13.31;96.07
37634;BME280;32048;49.902;22.508;2023-05-22T04:54:10;99003.50;;;13.71;93.15
37634;BME280;32048;49.902;22.508;2023-05-22T04:56:37;99006.75;;;14.05;87.35
37634;BME280;32048;49.902;22.508;2023-05-22T04:59:04;98996.75;;;14.37;80.21
37634;BME280;32048;49.902;22.508;2023-05-22T05:01:35;98987.69;;;14.68;81.50
37634;BME280;32048;49.902;22.508;2023-05-22T05:04:03;98996.13;;;15.02;79.95
37634;BME280;32048;49.902;22.508;2023-05-22T05:06:30;99003.94;;;15.31;79.58
37634;BME280;32048;49.902;22.508;2023-05-22T05:08:57;98990.22;;;15.63;76.97
37634;BME280;32048;49.902;22.508;2023-05-22T05:11:24;98998.47;;;15.98;75.46
37634;BME280;32048;49.902;22.508;2023-05-22T05:13:51;99003.13;;;16.33;73.58
37634;BME280;32048;49.902;22.508;2023-05-22T05:16:18;98996.28;;;16.66;68.71
37634;BME280;32048;49.902;22.508;2023-05-22T05:18:45;99002.69;;;17.00;70.99
37634;BME280;32048;49.902;22.508;2023-05-22T05:21:12;99007.44;;;17.32;67.19
37634;BME280;32048;49.902;22.508;2023-05-22T05:23:39;99008.44;;;17.53;63.37
37634;BME280;32048;49.902;22.508;2023-05-22T05:26:07;99008.59;;;17.63;61.08
37634;BME280;32048;49.902;22.508;2023-05-22T05:28:34;99012.72;;;17.56;64.57
37634;BME280;32048;49.902;22.508;2023-05-22T05:31:01;99015.63;;;17.64;65.97
37634;BME280;32048;49.902;22.508;2023-05-22T05:33:28;99016.00;;;17.71;61.64
37634;BME280;32048;49.902;22.508;2023-05-22T05:35:55;99009.53;;;17.97;63.50
37634;BME280;32048;49.902;22.508;2023-05-22T05:38:22;99004.06;;;18.33;60.15
37634;BME280;32048;49.902;22.508;2023-05-22T05:40:50;99009.88;;;18.38;56.05
37634;BME280;32048;49.902;22.508;2023-05-22T05:43:17;99007.69;;;18.43;57.66
37634;BME280;32048;49.902;22.508;2023-05-22T05:45:44;99010.69;;;18.61;60.04
37634;BME280;32048;49.902;22.508;2023-05-22T05:48:11;99003.38;;;18.85;56.48
37634;BME280;32048;49.902;22.508;2023-05-22T05:50:38;99003.72;;;18.92;56.99
37634;BME280;32048;49.902;22.508;2023-05-22T05:53:06;99010.31;;;19.20;54.92
37634;BME280;32048;49.902;22.508;2023-05-22T05:55:33;99012.28;;;18.86;54.08
37634;BME280;32048;49.902;22.508;2023-05-22T05:58:00;99003.03;;;18.79;56.41
37634;BME280;32048;49.902;22.508;2023-05-22T06:00:27;99010.41;;;18.98;55.03
37634;BME280;32048;49.902;22.508;2023-05-22T06:02:54;98998.78;;;18.65;56.19
37634;BME280;32048;49.902;22.508;2023-05-22T06:05:22;99001.19;;;18.90;57.92
37634;BME280;32048;49.902;22.508;2023-05-22T06:07:49;99000.97;;;19.15;53.76
37634;BME280;32048;49.902;22.508;2023-05-22T06:10:16;98999.09;;;19.47;55.54
37634;BME280;32048;49.902;22.508;2023-05-22T06:12:43;98998.28;;;19.89;55.10
37634;BME280;32048;49.902;22.508;2023-05-22T06:15:10;98994.22;;;20.35;53.29
37634;BME280;32048;49.902;22.508;2023-05-22T06:17:39;98987.44;;;20.71;50.24
37634;BME280;32048;49.902;22.508;2023-05-22T06:20:06;98984.50;;;21.23;51.19
37634;BME280;32048;49.902;22.508;2023-05-22T06:22:34;98985.69;;;21.87;49.37
37634;BME280;32048;49.902;22.508;2023-05-22T06:25:02;98978.44;;;22.45;44.65
37634;BME280;32048;49.902;22.508;2023-05-22T06:27:29;98983.47;;;22.93;45.91
37634;BME280;32048;49.902;22.508;2023-05-22T06:29:56;98983.34;;;23.31;44.50
37634;BME280;32048;49.902;22.508;2023-05-22T06:32:23;98986.94;;;23.57;43.61
37634;BME280;32048;49.902;22.508;2023-05-22T06:34:50;98979.94;;;23.91;41.36
37634;BME280;32048;49.902;22.508;2023-05-22T06:37:17;98982.25;;;24.12;41.19
37634;BME280;32048;49.902;22.508;2023-05-22T06:39:44;98978.81;;;24.36;40.33
37634;BME280;32048;49.902;22.508;2023-05-22T06:42:11;98978.00;;;24.43;38.58
37634;BME280;32048;49.902;22.508;2023-05-22T06:44:38;98978.19;;;24.42;40.20
37634;BME280;32048;49.902;22.508;2023-05-22T06:47:05;98983.72;;;24.40;39.81
37634;BME280;32048;49.902;22.508;2023-05-22T06:49:32;98979.66;;;24.36;38.34
37634;BME280;32048;49.902;22.508;2023-05-22T06:52:00;98984.47;;;24.51;40.05
37634;BME280;32048;49.902;22.508;2023-05-22T06:54:30;98980.69;;;24.35;39.53
37634;BME280;32048;49.902;22.508;2023-05-22T06:56:57;98976.22;;;24.18;40.26
37634;BME280;32048;49.902;22.508;2023-05-22T06:59:25;98969.84;;;24.27;39.43
37634;BME280;32048;49.902;22.508;2023-05-22T07:01:52;98968.28;;;24.16;36.13
37634;BME280;32048;49.902;22.508;2023-05-22T07:04:19;98978.16;;;23.55;38.55
37634;BME280;32048;49.902;22.508;2023-05-22T07:06:46;98971.63;;;22.86;39.65
37634;BME280;32048;49.902;22.508;2023-05-22T07:09:14;98970.47;;;22.89;39.26
37634;BME280;32048;49.902;22.508;2023-05-22T07:11:41;98975.91;;;23.07;40.77
37634;BME280;32048;49.902;22.508;2023-05-22T07:14:09;98977.19;;;23.02;38.36
37634;BME280;32048;49.902;22.508;2023-05-22T07:16:39;98978.88;;;22.86;38.40
37634;BME280;32048;49.902;22.508;2023-05-22T07:19:06;98964.34;;;22.51;41.54
37634;BME280;32048;49.902;22.508;2023-05-22T07:21:34;98968.50;;;22.45;40.35
37634;BME280;32048;49.902;22.508;2023-05-22T07:24:01;98963.75;;;22.57;43.02
37634;BME280;32048;49.902;22.508;2023-05-22T07:26:34;98970.69;;;22.77;43.17
37634;BME280;32048;49.902;22.508;2023-05-22T07:29:01;98973.13;;;23.34;43.51
37634;BME280;32048;49.902;22.508;2023-05-22T07:31:28;98961.38;;;23.88;39.67
37634;BME280;32048;49.902;22.508;2023-05-22T07:33:56;98966.41;;;24.09;41.38
37634;BME280;32048;49.902;22.508;2023-05-22T07:36:23;98960.19;;;24.59;40.56
37634;BME280;32048;49.902;22.508;2023-05-22T07:38:50;98967.84;;;24.88;39.01
37634;BME280;32048;49.902;22.508;2023-05-22T07:41:17;98959.97;;;25.03;37.90
37634;BME280;32048;49.902;22.508;2023-05-22T07:43:44;98963.88;;;25.41;39.06
37634;BME280;32048;49.902;22.508;2023-05-22T07:46:11;98968.91;;;25.85;38.11
37634;BME280;32048;49.902;22.508;2023-05-22T07:48:38;98970.84;;;26.16;37.04
37634;BME280;32048;49.902;22.508;2023-05-22T07:51:05;98960.91;;;26.17;36.29
37634;BME280;32048;49.902;22.508;2023-05-22T07:53:33;98966.53;;;26.38;35.77
37634;BME280;32048;49.902;22.508;2023-05-22T07:56:00;98965.81;;;26.05;35.89
37634;BME280;32048;49.902;22.508;2023-05-22T07:58:27;98956.94;;;25.63;38.04
37634;BME280;32048;49.902;22.508;2023-05-22T08:00:54;98960.47;;;25.72;38.88
37634;BME280;32048;49.902;22.508;2023-05-22T08:03:21;98963.81;;;25.82;36.98
37634;BME280;32048;49.902;22.508;2023-05-22T08:05:49;98967.28;;;25.27;38.20
37634;BME280;32048;49.902;22.508;2023-05-22T08:08:17;98971.72;;;24.69;36.08
37634;BME280;32048;49.902;22.508;2023-05-22T08:10:43;98965.09;;;24.55;39.46
37634;BME280;32048;49.902;22.508;2023-05-22T08:13:28;98960.81;;;24.44;38.31
37634;BME280;32048;49.902;22.508;2023-05-22T08:15:55;98960.91;;;24.35;38.66
37634;BME280;32048;49.902;22.508;2023-05-22T08:18:27;98965.44;;;23.92;39.90
37634;BME280;32048;49.902;22.508;2023-05-22T08:20:55;98957.97;;;23.85;41.03
37634;BME280;32048;49.902;22.508;2023-05-22T08:23:22;98962.84;;;24.08;42.23
37634;BME280;32048;49.902;22.508;2023-05-22T08:25:49;98955.66;;;24.67;41.08
37634;BME280;32048;49.902;22.508;2023-05-22T08:28:16;98967.59;;;25.24;37.24
37634;BME280;32048;49.902;22.508;2023-05-22T08:30:43;98954.69;;;24.93;38.01
37634;BME280;32048;49.902;22.508;2023-05-22T08:33:10;98954.22;;;25.14;37.29
37634;BME280;32048;49.902;22.508;2023-05-22T08:35:37;98954.94;;;25.41;37.24
37634;BME280;32048;49.902;22.508;2023-05-22T08:38:05;98946.63;;;25.59;37.39
37634;BME280;32048;49.902;22.508;2023-05-22T08:40:35;98950.97;;;25.84;37.57
37634;BME280;32048;49.902;22.508;2023-05-22T08:43:09;98951.13;;;25.83;34.77
37634;BME280;32048;49.902;22.508;2023-05-22T08:45:35;98945.81;;;25.34;37.09
37634;BME280;32048;49.902;22.508;2023-05-22T08:48:04;98945.81;;;25.25;36.54
37634;BME280;32048;49.902;22.508;2023-05-22T08:50:32;98945.47;;;25.28;35.97
37634;BME280;32048;49.902;22.508;2023-05-22T08:53:00;98953.47;;;24.63;36.33
37634;BME280;32048;49.902;22.508;2023-05-22T08:55:28;98937.94;;;24.65;38.13
37634;BME280;32048;49.902;22.508;2023-05-22T08:57:56;98939.34;;;25.02;36.83
37634;BME280;32048;49.902;22.508;2023-05-22T09:00:23;98928.03;;;25.06;35.52
37634;BME280;32048;49.902;22.508;2023-05-22T09:02:50;98942.72;;;24.96;36.47
37634;BME280;32048;49.902;22.508;2023-05-22T09:05:18;98925.72;;;24.44;35.97
37634;BME280;32048;49.902;22.508;2023-05-22T09:07:45;98926.81;;;24.25;37.88
37634;BME280;32048;49.902;22.508;2023-05-22T09:10:14;98934.59;;;24.71;39.07
37634;BME280;32048;49.902;22.508;2023-05-22T09:15:27;98926.81;;;25.75;33.86
37634;BME280;32048;49.902;22.508;2023-05-22T09:17:55;98920.88;;;25.79;34.24
37634;BME280;32048;49.902;22.508;2023-05-22T09:20:21;98919.91;;;25.72;34.48
37634;BME280;32048;49.902;22.508;2023-05-22T09:22:49;98928.78;;;26.05;33.75
37634;BME280;32048;49.902;22.508;2023-05-22T09:25:19;98916.72;;;26.16;33.35
37634;BME280;32048;49.902;22.508;2023-05-22T09:27:47;98938.06;;;26.03;31.85
37634;BME280;32048;49.902;22.508;2023-05-22T09:30:14;98914.50;;;25.64;33.33
37634;BME280;32048;49.902;22.508;2023-05-22T09:32:42;98906.22;;;25.49;34.12
37634;BME280;32048;49.902;22.508;2023-05-22T09:35:09;98901.94;;;25.79;32.96
37634;BME280;32048;49.902;22.508;2023-05-22T09:37:36;98899.34;;;26.02;31.17
37634;BME280;32048;49.902;22.508;2023-05-22T09:40:09;98902.50;;;26.14;33.18
37634;BME280;32048;49.902;22.508;2023-05-22T09:42:37;98910.59;;;26.30;32.34
37634;BME280;32048;49.902;22.508;2023-05-22T09:45:05;98885.66;;;26.04;31.00
37634;BME280;32048;49.902;22.508;2023-05-22T09:47:32;98890.38;;;26.10;30.67
37634;BME280;32048;49.902;22.508;2023-05-22T09:50:01;98892.69;;;26.21;32.75
37634;BME280;32048;49.902;22.508;2023-05-22T09:52:33;98897.25;;;26.52;31.13
37634;BME280;32048;49.902;22.508;2023-05-22T09:55:04;98904.25;;;26.38;29.09
37634;BME280;32048;49.902;22.508;2023-05-22T09:57:51;98881.91;;;26.05;30.85
37634;BME280;32048;49.902;22.508;2023-05-22T10:00:18;98886.72;;;25.95;32.09
37634;BME280;32048;49.902;22.508;2023-05-22T10:02:47;98883.53;;;26.22;31.77
37634;BME280;32048;49.902;22.508;2023-05-22T10:05:14;98893.31;;;26.86;29.90
37634;BME280;32048;49.902;22.508;2023-05-22T10:07:48;98895.81;;;26.95;30.05
37634;BME280;32048;49.902;22.508;2023-05-22T10:10:16;98896.09;;;26.78;29.52
37634;BME280;32048;49.902;22.508;2023-05-22T10:12:46;98882.44;;;26.94;29.64
37634;BME280;32048;49.902;22.508;2023-05-22T10:15:14;98903.28;;;26.70;28.17
37634;BME280;32048;49.902;22.508;2023-05-22T10:17:41;98918.75;;;26.53;29.00
37634;BME280;32048;49.902;22.508;2023-05-22T10:20:08;98890.78;;;25.90;29.51
37634;BME280;32048;49.902;22.508;2023-05-22T10:22:36;98881.75;;;25.42;31.04
37634;BME280;32048;49.902;22.508;2023-05-22T10:25:04;98888.53;;;25.30;33.57
37634;BME280;32048;49.902;22.508;2023-05-22T10:27:33;98882.25;;;25.54;30.64
37634;BME280;32048;49.902;22.508;2023-05-22T10:32:32;98887.34;;;25.33;32.06
37634;BME280;32048;49.902;22.508;2023-05-22T10:35:10;98879.03;;;25.18;31.64
37634;BME280;32048;49.902;22.508;2023-05-22T10:37:50;98875.69;;;24.99;33.36
37634;BME280;32048;49.902;22.508;2023-05-22T10:40:19;98886.34;;;25.09;31.47
37634;BME280;32048;49.902;22.508;2023-05-22T10:42:47;98866.06;;;24.72;33.00
37634;BME280;32048;49.902;22.508;2023-05-22T10:45:14;98868.00;;;24.37;33.91
37634;BME280;32048;49.902;22.508;2023-05-22T10:47:42;98862.69;;;24.62;35.05
37634;BME280;32048;49.902;22.508;2023-05-22T10:50:09;98870.09;;;24.93;32.47
37634;BME280;32048;49.902;22.508;2023-05-22T10:52:38;98864.19;;;24.64;32.38
37634;BME280;32048;49.902;22.508;2023-05-22T10:55:07;98856.25;;;24.63;33.16
37634;BME280;32048;49.902;22.508;2023-05-22T10:57:38;98857.63;;;24.83;33.04
37634;BME280;32048;49.902;22.508;2023-05-22T11:00:09;98868.06;;;25.11;31.95
37634;BME280;32048;49.902;22.508;2023-05-22T11:02:39;98854.06;;;25.32;33.36
37634;BME280;32048;49.902;22.508;2023-05-22T11:07:39;98840.25;;;26.14;30.93
37634;BME280;32048;49.902;22.508;2023-05-22T11:10:07;98858.06;;;26.40;30.46
37634;BME280;32048;49.902;22.508;2023-05-22T11:12:34;98852.09;;;26.44;30.12
37634;BME280;32048;49.902;22.508;2023-05-22T11:20:12;98842.91;;;25.99;31.84
37634;BME280;32048;49.902;22.508;2023-05-22T11:22:42;98845.78;;;25.98;29.40
37634;BME280;32048;49.902;22.508;2023-05-22T11:25:10;98846.66;;;25.82;30.75
37634;BME280;32048;49.902;22.508;2023-05-22T11:27:43;98843.44;;;25.95;31.11
37634;BME280;32048;49.902;22.508;2023-05-22T11:30:10;98838.00;;;25.86;31.16
37634;BME280;32048;49.902;22.508;2023-05-22T11:32:39;98833.44;;;25.95;30.48
37634;BME280;32048;49.902;22.508;2023-05-22T11:35:06;98828.91;;;25.87;30.08
37634;BME280;32048;49.902;22.508;2023-05-22T11:37:37;98820.63;;;25.81;29.55
37634;BME280;32048;49.902;22.508;2023-05-22T11:40:04;98833.44;;;25.39;31.34
37634;BME280;32048;49.902;22.508;2023-05-22T11:42:32;98831.94;;;25.04;31.43
37634;BME280;32048;49.902;22.508;2023-05-22T11:44:59;98828.75;;;24.84;32.22
37634;BME280;32048;49.902;22.508;2023-05-22T11:47:26;98823.00;;;24.79;32.77
37634;BME280;32048;49.902;22.508;2023-05-22T11:49:57;98831.22;;;24.44;33.65
37634;BME280;32048;49.902;22.508;2023-05-22T11:52:30;98825.81;;;24.36;33.88
37634;BME280;32048;49.902;22.508;2023-05-22T11:54:56;98814.00;;;24.45;33.83
37634;BME280;32048;49.902;22.508;2023-05-22T11:57:24;98812.34;;;24.53;33.00
37634;BME280;32048;49.902;22.508;2023-05-22T11:59:50;98815.75;;;24.79;32.53
37634;BME280;32048;49.902;22.508;2023-05-22T12:02:18;98814.06;;;24.78;32.75
37634;BME280;32048;49.902;22.508;2023-05-22T12:04:45;98806.66;;;24.80;33.19
37634;BME280;32048;49.902;22.508;2023-05-22T12:07:12;98814.03;;;24.86;31.47
37634;BME280;32048;49.902;22.508;2023-05-22T12:09:40;98807.13;;;24.92;31.69
37634;BME280;32048;49.902;22.508;2023-05-22T12:12:08;98816.44;;;24.89;31.51
37634;BME280;32048;49.902;22.508;2023-05-22T12:14:37;98801.06;;;24.82;32.53
37634;BME280;32048;49.902;22.508;2023-05-22T12:17:04;98815.59;;;24.56;32.58
37634;BME280;32048;49.902;22.508;2023-05-22T12:19:31;98798.81;;;24.36;34.30
37634;BME280;32048;49.902;22.508;2023-05-22T12:21:59;98796.16;;;24.44;34.46
37634;BME280;32048;49.902;22.508;2023-05-22T12:24:35;98798.88;;;24.69;34.00
37634;BME280;32048;49.902;22.508;2023-05-22T12:27:06;98812.72;;;24.58;32.47
37634;BME280;32048;49.902;22.508;2023-05-22T12:29:33;98804.53;;;24.09;34.13
37634;BME280;32048;49.902;22.508;2023-05-22T12:32:04;98799.06;;;23.58;33.35
37634;BME280;32048;49.902;22.508;2023-05-22T12:34:33;98813.38;;;23.24;33.20
37634;BME280;32048;49.902;22.508;2023-05-22T12:37:00;98812.06;;;23.02;33.86
37634;BME280;32048;49.902;22.508;2023-05-22T12:39:27;98802.31;;;22.83;35.37
37634;BME280;32048;49.902;22.508;2023-05-22T12:41:55;98807.69;;;22.83;35.35
37634;BME280;32048;49.902;22.508;2023-05-22T12:44:22;98803.78;;;22.77;35.46
37634;BME280;32048;49.902;22.508;2023-05-22T12:46:50;98807.25;;;22.70;35.84
37634;BME280;32048;49.902;22.508;2023-05-22T12:49:17;98800.19;;;22.51;38.62
37634;BME280;32048;49.902;22.508;2023-05-22T12:51:44;98799.06;;;22.53;36.70
37634;BME280;32048;49.902;22.508;2023-05-22T12:54:11;98800.59;;;22.56;37.22
37634;BME280;32048;49.902;22.508;2023-05-22T12:56:40;98797.66;;;22.67;36.91
37634;BME280;32048;49.902;22.508;2023-05-22T12:59:07;98785.63;;;22.79;37.26
37634;BME280;32048;49.902;22.508;2023-05-22T13:01:34;98780.78;;;23.09;37.28
37634;BME280;32048;49.902;22.508;2023-05-22T13:04:01;98773.94;;;23.49;37.46
37634;BME280;32048;49.902;22.508;2023-05-22T13:06:28;98778.59;;;23.73;36.70
37634;BME280;32048;49.902;22.508;2023-05-22T13:08:56;98780.97;;;23.76;34.55
37634;BME280;32048;49.902;22.508;2023-05-22T13:11:23;98775.50;;;23.60;36.32
37634;BME280;32048;49.902;22.508;2023-05-22T13:13:52;98773.16;;;23.57;34.23
37634;BME280;32048;49.902;22.508;2023-05-22T13:16:19;98768.94;;;23.54;36.14
37634;BME280;32048;49.902;22.508;2023-05-22T13:18:46;98774.63;;;23.51;35.35
37634;BME280;32048;49.902;22.508;2023-05-22T13:21:13;98771.38;;;23.39;35.55
37634;BME280;32048;49.902;22.508;2023-05-22T13:23:41;98763.41;;;23.30;36.40